Time;durP1;ratioP1;P1;durP2;ratioP2;P2;SDS_P1;SDS_P2;PMS_P1;PMS_P2;Temp;Humidity;BMP_temperature;BMP_pressure;BME280_temperature;BME280_humidity;BME280_pressure;Samples;Min_cycle;Max_cycle;Signal;HPM_P1;HPM_P2
2021/12/20 00:01:00;;;;;;;;;13.50;12.25;;;;;5.21;79.05;101897.97;5053556;28;45421;-77
2021/12/20 00:03:27;;;;;;;;;23.25;14.50;;;;;5.19;79.05;101899.69;5054350;28;45387;-77
2021/12/20 00:05:52;;;;;;;;;13.50;12.00;;;;;5.15;79.16;101889.13;5053770;28;45398;-78
2021/12/20 00:08:18;;;;;;;;;14.00;11.00;;;;;5.06;79.24;101877.56;5036829;28;46839;-77
2021/12/20 00:10:43;;;;;;;;;15.50;12.25;;;;;5.13;79.61;101888.22;5043670;28;49600;-78
2021/12/20 00:13:09;;;;;;;;;24.00;12.75;;;;;5.15;79.34;101889.13;5054510;28;45390;-78
2021/12/20 00:15:34;;;;;;;;;15.25;12.50;;;;;5.19;79.57;101889.19;5054086;28;45352;-78
2021/12/20 00:18:00;;;;;;;;;22.50;13.50;;;;;5.22;79.76;101892.75;5052216;28;45514;-77
2021/12/20 00:20:25;;;;;;;;;12.25;12.00;;;;;5.20;79.62;101884.00;5053266;28;45310;-77
2021/12/20 00:22:51;;;;;;;;;11.75;10.25;;;;;5.22;79.79;101876.16;5054036;28;45358;-78
2021/12/20 00:25:17;;;;;;;;;13.50;12.00;;;;;5.24;79.50;101879.69;5053686;28;45346;-77
2021/12/20 00:27:42;;;;;;;;;22.75;15.50;;;;;5.24;79.68;101875.34;5052967;28;45412;-78
2021/12/20 00:30:09;;;;;;;;;18.00;14.25;;;;;5.28;78.76;101878.91;5054026;28;45444;-77
2021/12/20 00:32:35;;;;;;;;;16.00;15.00;;;;;5.19;79.33;101868.22;5059074;28;45572;-78
2021/12/20 00:35:01;;;;;;;;;13.00;11.00;;;;;5.23;79.15;101875.31;5034252;28;45373;-78
2021/12/20 00:40:23;;;;;;;;;12.25;9.25;;;;;5.16;79.40;101875.19;5058948;28;45360;-77
2021/12/20 00:42:57;;;;;;;;;13.00;9.75;;;;;5.12;80.03;101878.56;5057844;28;45322;-77
2021/12/20 00:45:25;;;;;;;;;12.75;12.00;;;;;5.12;80.14;101883.81;5042084;28;45414;-77
2021/12/20 00:47:52;;;;;;;;;14.25;11.75;;;;;5.15;79.41;101868.16;5051481;28;46958;-78
2021/12/20 00:50:20;;;;;;;;;19.50;14.00;;;;;5.16;79.98;101880.44;5057451;28;45323;-77
2021/12/20 00:52:46;;;;;;;;;18.25;12.25;;;;;5.05;79.56;101850.44;5056863;28;45470;-77
2021/12/20 00:55:17;;;;;;;;;15.25;13.00;;;;;5.12;79.33;101878.56;5057172;28;45480;-77
2021/12/20 00:57:43;;;;;;;;;20.00;11.50;;;;;5.08;79.70;101875.84;5054352;28;45610;-79
2021/12/20 01:00:10;;;;;;;;;13.25;9.00;;;;;5.04;79.66;101874.00;5057076;28;45490;-77
2021/12/20 01:02:35;;;;;;;;;18.25;11.00;;;;;4.97;79.35;101871.22;5070831;28;45470;-78
2021/12/20 01:05:01;;;;;;;;;13.75;10.00;;;;;4.92;79.85;101865.00;5057074;28;45509;-77
2021/12/20 01:07:28;;;;;;;;;15.25;12.00;;;;;4.91;80.16;101862.34;5054760;28;45984;-77
2021/12/20 01:09:57;;;;;;;;;17.75;13.50;;;;;4.98;79.87;101864.28;5056759;28;45454;-76
2021/12/20 01:12:25;;;;;;;;;13.25;9.75;;;;;5.01;80.44;101864.34;5057942;28;45389;-77
2021/12/20 01:14:58;;;;;;;;;11.75;9.25;;;;;5.01;79.90;101853.88;5057209;28;45461;-78
2021/12/20 01:17:23;;;;;;;;;3.25;3.25;;;;;4.98;79.83;101852.06;5053925;28;47391;-78
2021/12/20 01:19:48;;;;;;;;;11.50;9.75;;;;;5.02;80.04;101855.63;5056721;28;45499;-77
2021/12/20 01:22:14;;;;;;;;;14.00;11.75;;;;;4.88;79.95;101846.56;5056649;28;45623;-78
2021/12/20 01:24:39;;;;;;;;;17.00;11.50;;;;;4.96;79.86;101850.25;5056813;28;45465;-78
2021/12/20 01:27:04;;;;;;;;;3.50;3.00;;;;;5.00;80.11;101840.72;5054686;28;46024;-77
2021/12/20 01:29:30;;;;;;;;;15.25;10.75;;;;;4.96;79.68;101845.00;5061343;28;45476;-76
2021/12/20 01:31:57;;;;;;;;;10.25;9.50;;;;;5.03;80.19;101841.69;5055386;28;45409;-78
2021/12/20 01:34:22;;;;;;;;;15.00;11.00;;;;;5.06;79.94;101846.13;5056405;28;45402;-77
2021/12/20 01:36:48;;;;;;;;;13.00;11.00;;;;;5.05;79.69;101847.81;5050732;28;46147;-78
2021/12/20 01:39:13;;;;;;;;;14.75;13.50;;;;;5.04;79.60;101842.56;5056487;28;45427;-77
2021/12/20 01:41:41;;;;;;;;;15.00;12.00;;;;;5.09;79.84;101848.81;5040970;28;45470;-78
2021/12/20 01:44:07;;;;;;;;;13.50;9.75;;;;;5.08;80.30;101842.66;5056269;28;45440;-76
2021/12/20 01:46:33;;;;;;;;;21.00;15.00;;;;;5.10;79.81;101845.31;5053719;28;45599;-77
2021/12/20 01:49:00;;;;;;;;;13.50;12.00;;;;;5.12;79.62;101847.13;5055066;28;45489;-77
2021/12/20 01:53:58;;;;;;;;;13.00;12.00;;;;;5.16;79.22;101838.50;5055127;28;45412;-77
2021/12/20 01:56:23;;;;;;;;;19.00;12.75;;;;;5.18;79.59;101837.63;5055688;28;46361;-78
2021/12/20 01:58:49;;;;;;;;;22.50;14.00;;;;;5.20;78.98;101843.78;5055975;28;45586;-78
2021/12/20 02:03:44;;;;;;;;;14.00;14.00;;;;;5.22;79.26;101842.09;5044468;28;45570;-78
2021/12/20 02:06:20;;;;;;;;;18.00;9.75;;;;;5.13;78.47;101835.78;5056124;28;45953;-77
2021/12/20 02:08:46;;;;;;;;;14.75;11.75;;;;;5.02;78.78;101812.81;5054561;28;45622;-77
2021/12/20 02:11:12;;;;;;;;;10.50;8.75;;;;;5.11;79.15;101824.38;5056876;28;45841;-77
2021/12/20 02:13:39;;;;;;;;;16.50;12.50;;;;;5.15;79.20;101836.72;5056574;28;45475;-77
2021/12/20 02:16:05;;;;;;;;;11.50;9.25;;;;;5.13;78.93;101838.41;5054390;28;46591;-78
2021/12/20 02:18:32;;;;;;;;;20.50;13.50;;;;;5.11;79.20;101827.00;5051518;28;45541;-77
2021/12/20 02:20:58;;;;;;;;;19.50;16.00;;;;;5.15;79.50;101826.22;5055096;28;45573;-77
2021/12/20 02:23:24;;;;;;;;;24.75;14.00;;;;;5.13;79.04;101827.94;5054916;28;45385;-77
2021/12/20 02:25:49;;;;;;;;;20.75;11.50;;;;;5.15;78.73;101820.97;5056229;28;45553;-77
2021/12/20 02:28:20;;;;;;;;;16.75;13.50;;;;;5.16;79.33;101829.72;5053594;28;45780;-77
2021/12/20 02:36:57;;;;;;;;;18.50;13.50;;;;;5.15;79.31;101834.09;5054866;28;45348;-77
2021/12/20 02:39:16;;;;;;;;;28.75;21.50;;;;;5.19;78.31;101829.78;5055057;28;45397;-77
2021/12/20 02:41:42;;;;;;;;;27.25;23.00;;;;;5.21;78.79;101825.47;5039265;28;45596;-76
2021/12/20 02:44:16;;;;;;;;;25.25;20.00;;;;;5.20;78.50;101821.06;5053405;28;45639;-77
2021/12/20 02:49:30;;;;;;;;;20.00;18.75;;;;;5.27;78.21;101819.50;5035146;28;45576;-78
2021/12/20 02:52:03;;;;;;;;;31.50;23.75;;;;;5.24;78.40;101809.81;5050116;28;45508;-77
2021/12/20 02:54:29;;;;;;;;;18.75;14.50;;;;;5.26;78.54;101812.47;5055010;28;45528;-79
2021/12/20 02:56:54;;;;;;;;;32.50;27.50;;;;;5.32;77.80;101809.97;5054387;28;46181;-77
2021/12/20 02:59:19;;;;;;;;;38.50;24.00;;;;;5.33;78.28;101815.25;5053862;28;45336;-78
2021/12/20 03:01:53;;;;;;;;;29.00;24.00;;;;;5.29;77.29;101825.66;5048953;28;45848;-77
2021/12/20 03:04:18;;;;;;;;;24.00;13.00;;;;;5.18;77.97;101814.94;5053633;28;45364;-80
2021/12/20 03:06:54;;;;;;;;;23.50;18.25;;;;;5.20;78.14;101802.72;5054759;28;45929;-81
2021/12/20 03:09:22;;;;;;;;;26.75;22.25;;;;;5.22;78.36;101805.38;5052878;28;45465;-80
2021/12/20 03:11:51;;;;;;;;;22.75;16.50;;;;;5.23;78.28;101808.03;5055770;28;45500;-81
2021/12/20 03:14:26;;;;;;;;;23.00;15.75;;;;;5.26;78.47;101794.13;5055560;28;45624;-79
2021/12/20 03:16:52;;;;;;;;;24.25;18.75;;;;;5.26;78.26;101795.00;5047888;28;45531;-79
2021/12/20 03:19:17;;;;;;;;;26.25;19.75;;;;;5.25;78.24;101789.72;5057262;28;45788;-80
2021/12/20 03:21:44;;;;;;;;;28.25;20.75;;;;;5.22;77.81;101790.53;5058507;28;45570;-81
2021/12/20 03:24:09;;;;;;;;;27.25;21.25;;;;;5.16;78.17;101785.16;5057904;28;45500;-81
2021/12/20 03:26:35;;;;;;;;;25.75;24.00;;;;;5.21;77.62;101791.41;5058678;28;45504;-81
2021/12/20 03:29:01;;;;;;;;;9.50;6.25;;;;;5.21;78.14;101793.13;5066847;28;45355;-80
2021/12/20 03:31:26;;;;;;;;;24.50;20.00;;;;;5.20;78.00;101787.00;5072598;28;44953;-79
2021/12/20 03:33:52;;;;;;;;;31.00;20.75;;;;;5.20;77.99;101786.13;5069256;28;45369;-81
2021/12/20 03:36:17;;;;;;;;;20.25;18.25;;;;;5.18;78.19;101782.56;5056738;28;46306;-81
2021/12/20 03:38:43;;;;;;;;;30.75;23.00;;;;;5.21;77.98;101786.16;5055551;28;45421;-81
2021/12/20 03:41:08;;;;;;;;;28.50;21.50;;;;;5.22;77.82;101779.16;5039404;28;45319;-81
2021/12/20 03:43:35;;;;;;;;;26.00;19.00;;;;;5.20;78.56;101773.91;5035502;28;45588;-81
2021/12/20 03:46:03;;;;;;;;;22.00;18.50;;;;;5.17;77.74;101776.44;5054337;28;46089;-79
2021/12/20 03:48:29;;;;;;;;;27.25;23.50;;;;;5.15;77.67;101773.78;5053299;28;45507;-80
2021/12/20 03:50:56;;;;;;;;;23.75;19.75;;;;;5.10;77.75;101775.44;5053336;28;45540;-81
2021/12/20 03:53:22;;;;;;;;;23.50;15.75;;;;;5.06;78.17;101773.59;5070092;28;45427;-80
2021/12/20 03:55:47;;;;;;;;;22.00;16.50;;;;;5.02;78.08;101771.75;5053157;28;47832;-82
2021/12/20 03:58:12;;;;;;;;;27.00;19.00;;;;;5.04;78.13;101770.06;5056162;28;45492;-79
2021/12/20 04:00:38;;;;;;;;;27.50;21.50;;;;;5.05;78.49;101778.81;5057165;28;45408;-81
2021/12/20 04:03:09;;;;;;;;;30.00;23.50;;;;;5.06;78.15;101784.09;5055668;28;45478;-80
2021/12/20 04:05:35;;;;;;;;;11.50;10.00;;;;;5.05;78.12;101790.16;5054772;28;46212;-79
2021/12/20 04:08:01;;;;;;;;;39.00;34.00;;;;;5.03;78.71;101778.78;5062624;28;45503;-78
2021/12/20 04:10:26;;;;;;;;;27.50;23.50;;;;;5.03;78.44;101776.16;5053055;28;45343;-79
2021/12/20 04:12:51;;;;;;;;;28.25;21.50;;;;;5.01;78.76;101772.63;5055521;28;45289;-81
2021/12/20 04:15:18;;;;;;;;;36.25;31.25;;;;;5.05;79.00;101766.59;5052703;28;46336;-80
2021/12/20 04:17:44;;;;;;;;;15.75;10.00;;;;;5.10;78.47;101771.91;5054087;28;45423;-80
2021/12/20 04:20:10;;;;;;;;;28.25;23.75;;;;;5.05;77.82;101774.44;5069939;28;45410;-80
2021/12/20 04:22:35;;;;;;;;;24.00;22.50;;;;;5.10;78.43;101774.53;5050024;28;45604;-81
2021/12/20 04:25:00;;;;;;;;;26.50;21.00;;;;;5.06;78.15;101778.84;5059177;28;46235;-81
2021/12/20 04:27:27;;;;;;;;;33.25;27.25;;;;;5.06;78.24;101778.84;5059708;28;45444;-80
2021/12/20 04:29:54;;;;;;;;;21.25;18.75;;;;;5.04;77.96;101780.56;5061916;28;45254;-80
2021/12/20 04:32:20;;;;;;;;;27.00;23.25;;;;;4.98;78.89;101773.44;5058931;28;45467;-80
2021/12/20 04:34:45;;;;;;;;;37.25;26.00;;;;;5.05;78.72;101782.31;5059178;28;45532;-80
2021/12/20 04:37:11;;;;;;;;;28.50;19.50;;;;;5.05;78.81;101777.06;5071972;28;45402;-80
2021/12/20 04:39:36;;;;;;;;;31.00;22.50;;;;;5.10;78.49;101770.22;5058493;28;45548;-80
2021/12/20 04:42:02;;;;;;;;;25.75;21.50;;;;;5.11;78.68;101778.94;5056423;28;45322;-80
2021/12/20 04:44:27;;;;;;;;;29.50;18.75;;;;;5.09;78.50;101773.66;5058075;28;45955;-80
2021/12/20 04:46:53;;;;;;;;;29.75;24.00;;;;;5.07;78.56;101770.13;5042106;28;45458;-80
2021/12/20 04:49:18;;;;;;;;;24.50;19.25;;;;;5.09;78.45;101762.31;5037626;28;45421;-80
2021/12/20 04:51:44;;;;;;;;;30.25;24.50;;;;;5.05;78.26;101766.59;5051014;28;45561;-80
2021/12/20 04:54:09;;;;;;;;;29.25;20.00;;;;;5.07;78.58;101767.53;5057318;28;45420;-80
2021/12/20 04:56:34;;;;;;;;;29.75;22.00;;;;;5.06;78.15;101777.97;5056360;28;45415;-79
2021/12/20 04:59:00;;;;;;;;;20.75;18.00;;;;;5.01;78.72;101775.25;5059169;28;45424;-81
2021/12/20 05:01:25;;;;;;;;;27.75;24.50;;;;;5.01;78.69;101780.50;5060201;28;45397;-80
2021/12/20 05:03:51;;;;;;;;;32.25;26.25;;;;;4.99;78.65;101774.31;5059356;28;46738;-81
2021/12/20 05:06:16;;;;;;;;;25.50;18.25;;;;;5.00;78.71;101778.72;5056515;28;45453;-79
2021/12/20 05:08:50;;;;;;;;;29.00;20.50;;;;;5.00;78.45;101781.34;5058254;28;45365;-80
2021/12/20 05:11:16;;;;;;;;;23.25;19.75;;;;;4.95;78.49;101785.56;5058150;28;45475;-80
2021/12/20 05:13:42;;;;;;;;;23.75;17.50;;;;;4.96;78.69;101782.09;5056994;28;45456;-80
2021/12/20 05:16:07;;;;;;;;;31.00;24.00;;;;;5.00;78.89;101783.06;5048738;28;45566;-79
2021/12/20 05:18:33;;;;;;;;;30.50;28.00;;;;;4.99;78.85;101774.31;5037037;28;45544;-80
2021/12/20 05:20:58;;;;;;;;;30.25;26.00;;;;;5.01;78.92;101782.22;5035595;28;45658;-80
2021/12/20 05:23:24;;;;;;;;;28.75;22.25;;;;;4.99;78.81;101776.94;5047368;28;45467;-79
2021/12/20 05:25:50;;;;;;;;;30.25;20.75;;;;;5.00;78.82;101802.28;5054561;28;45543;-80
2021/12/20 05:28:15;;;;;;;;;28.25;24.75;;;;;4.92;78.81;101775.91;5057590;28;45465;-80
2021/12/20 05:30:40;;;;;;;;;29.50;18.00;;;;;4.94;79.00;101796.91;5055079;28;45540;-80
2021/12/20 05:33:06;;;;;;;;;16.50;10.00;;;;;4.84;79.00;101789.69;5058021;28;45371;-80
2021/12/20 05:35:31;;;;;;;;;27.50;21.25;;;;;4.66;78.94;101762.25;5057890;28;45476;-80
2021/12/20 05:37:58;;;;;;;;;28.50;21.00;;;;;4.84;78.76;101787.06;5058382;28;45289;-80
2021/12/20 05:40:24;;;;;;;;;25.50;18.50;;;;;4.81;78.89;101782.63;5056356;28;45398;-79
2021/12/20 05:42:51;;;;;;;;;29.50;21.25;;;;;4.79;79.13;101779.97;5055786;28;45555;-80
2021/12/20 05:45:19;;;;;;;;;25.00;19.50;;;;;4.82;78.83;101776.56;5053929;28;45424;-80
2021/12/20 05:47:45;;;;;;;;;17.50;8.75;;;;;4.78;78.71;101773.00;5056642;28;45372;-81
2021/12/20 05:50:12;;;;;;;;;20.00;18.25;;;;;4.67;78.59;101758.75;5056198;28;45386;-80
2021/12/20 05:52:38;;;;;;;;;21.00;17.00;;;;;4.83;78.23;101790.53;5055481;28;46063;-81
2021/12/20 05:55:05;;;;;;;;;15.25;13.00;;;;;4.80;78.49;101792.25;5056468;28;45409;-82
2021/12/20 05:57:32;;;;;;;;;26.75;21.25;;;;;4.69;78.64;101775.41;5060279;28;45339;-81
2021/12/20 05:59:58;;;;;;;;;23.25;17.50;;;;;4.74;78.61;101792.09;5062643;28;45330;-79
2021/12/20 06:02:23;;;;;;;;;20.00;15.50;;;;;4.74;78.79;101776.38;5064959;28;45383;-81
2021/12/20 06:04:50;;;;;;;;;22.25;14.50;;;;;4.81;78.31;101780.03;5066273;28;45301;-79
2021/12/20 06:07:20;;;;;;;;;16.50;12.50;;;;;4.81;78.52;101782.63;5060614;28;45402;-80
2021/12/20 06:09:47;;;;;;;;;24.25;20.00;;;;;4.83;78.20;101786.19;5060385;28;45419;-81
2021/12/20 06:12:12;;;;;;;;;19.00;15.50;;;;;4.82;77.89;101784.41;5057687;28;46146;-81
2021/12/20 06:14:38;;;;;;;;;31.50;19.25;;;;;4.86;77.80;101786.28;5056083;28;45476;-80
2021/12/20 06:17:04;;;;;;;;;14.75;12.75;;;;;4.70;77.67;101757.94;5055926;28;45361;-81
2021/12/20 06:19:29;;;;;;;;;27.75;21.75;;;;;4.79;78.05;101769.50;5052730;28;45324;-80
2021/12/20 06:21:55;;;;;;;;;20.75;15.25;;;;;4.84;77.66;101787.06;5035898;28;45363;-81
2021/12/20 06:24:21;;;;;;;;;22.25;16.50;;;;;4.75;77.84;101780.78;5035321;28;45441;-80
2021/12/20 06:26:46;;;;;;;;;15.00;10.00;;;;;4.65;77.76;101796.22;5049589;28;45333;-80
2021/12/20 06:29:12;;;;;;;;;29.25;19.75;;;;;4.64;77.52;101803.22;5056054;28;45325;-80
2021/12/20 06:31:37;;;;;;;;;16.25;12.50;;;;;4.62;77.66;101791.81;5043100;28;45420;-80
2021/12/20 06:34:04;;;;;;;;;18.25;17.75;;;;;4.64;77.64;101803.22;5035083;28;45431;-80
2021/12/20 06:36:31;;;;;;;;;18.00;13.00;;;;;4.62;77.76;101792.69;5056277;28;45609;-80
2021/12/20 06:38:57;;;;;;;;;15.25;11.00;;;;;4.58;77.47;101784.72;5057977;28;45593;-81
2021/12/20 06:41:23;;;;;;;;;20.00;13.00;;;;;4.69;77.68;101801.59;5054137;28;45495;-80
2021/12/20 06:43:49;;;;;;;;;16.50;15.25;;;;;4.66;77.34;101798.91;5055542;28;45425;-81
2021/12/20 06:46:16;;;;;;;;;17.50;10.50;;;;;4.69;77.51;101798.97;5054518;28;45584;-80
2021/12/20 06:48:42;;;;;;;;;14.00;9.50;;;;;4.70;77.18;101798.13;5057799;28;45384;-79
2021/12/20 06:51:07;;;;;;;;;14.00;12.50;;;;;4.70;77.45;101816.44;5050953;28;47878;-79
2021/12/20 06:53:32;;;;;;;;;15.25;15.25;;;;;4.65;77.27;101823.31;5055420;28;45490;-81
2021/12/20 06:55:58;;;;;;;;;16.00;12.00;;;;;4.65;77.58;101810.22;5055172;28;45503;-80
2021/12/20 06:58:24;;;;;;;;;22.00;19.50;;;;;4.69;77.73;101809.47;5035231;28;45576;-80
2021/12/20 07:00:51;;;;;;;;;20.00;13.25;;;;;4.71;77.49;101806.88;5039868;28;45482;-80
2021/12/20 07:03:18;;;;;;;;;20.50;14.50;;;;;4.75;77.53;101814.84;5055810;28;45392;-81
2021/12/20 07:05:44;;;;;;;;;18.00;14.50;;;;;4.77;77.13;101812.25;5057192;28;45384;-80
2021/12/20 07:08:10;;;;;;;;;18.00;15.00;;;;;4.75;77.34;101814.84;5059633;28;45619;-75
2021/12/20 07:10:35;;;;;;;;;18.25;14.50;;;;;4.82;77.14;101807.13;5056417;28;45310;-80
2021/12/20 07:13:02;;;;;;;;;15.25;10.25;;;;;4.82;77.35;101809.75;5052371;28;45545;-79
2021/12/20 07:15:27;;;;;;;;;27.00;21.50;;;;;4.84;77.01;101816.75;5060221;28;45259;-80
2021/12/20 07:17:53;;;;;;;;;34.00;23.50;;;;;4.80;76.80;101813.19;5077108;28;45501;-81
2021/12/20 07:20:19;;;;;;;;;22.50;14.50;;;;;4.75;77.06;101809.59;5073707;28;45646;-80
2021/12/20 07:22:44;;;;;;;;;20.50;18.00;;;;;4.85;77.38;101809.81;5055105;28;45635;-80
2021/12/20 07:25:10;;;;;;;;;24.25;15.25;;;;;4.84;77.23;101800.16;5073215;28;45588;-79
2021/12/20 07:27:35;;;;;;;;;18.50;15.75;;;;;4.83;77.18;101811.50;5056671;28;45341;-80
2021/12/20 07:30:03;;;;;;;;;31.25;20.00;;;;;4.84;76.63;101818.50;5054069;28;48601;-80
2021/12/20 07:32:30;;;;;;;;;22.25;15.25;;;;;4.85;77.28;101815.06;5038010;28;45429;-80
2021/12/20 07:34:56;;;;;;;;;23.50;18.50;;;;;4.82;77.46;101796.66;5035181;28;45521;-82
2021/12/20 07:37:22;;;;;;;;;21.25;15.25;;;;;4.82;77.22;101804.50;5055328;28;45506;-79
2021/12/20 07:39:47;;;;;;;;;19.75;14.00;;;;;4.89;77.96;101814.25;5059586;28;45484;-80
2021/12/20 07:42:13;;;;;;;;;32.00;18.00;;;;;4.78;77.13;101793.97;5054062;28;45607;-80
2021/12/20 07:44:39;;;;;;;;;20.50;15.50;;;;;4.86;76.68;101819.41;5054389;28;45417;-78
2021/12/20 07:47:06;;;;;;;;;23.00;19.00;;;;;4.84;77.11;101814.16;5049522;28;45472;-77
2021/12/20 07:49:34;;;;;;;;;22.00;16.00;;;;;4.84;76.94;101813.28;5051633;28;45894;-80
2021/12/20 07:52:00;;;;;;;;;15.75;15.75;;;;;4.83;76.83;101817.63;5042359;28;45338;-81
2021/12/20 07:54:25;;;;;;;;;17.00;14.00;;;;;4.78;77.04;101807.06;5036787;28;45373;-80
2021/12/20 07:56:50;;;;;;;;;26.00;18.25;;;;;4.80;76.58;101818.44;5049899;28;45331;-80
2021/12/20 07:59:16;;;;;;;;;12.50;9.50;;;;;4.74;76.91;101812.19;5046488;28;46277;-80
2021/12/20 08:01:41;;;;;;;;;23.50;17.50;;;;;4.72;76.69;101819.09;5052416;28;45636;-80
2021/12/20 08:04:07;;;;;;;;;15.75;12.75;;;;;4.69;76.96;101825.19;5058307;28;45473;-81
2021/12/20 08:06:33;;;;;;;;;8.50;4.00;;;;;4.66;76.61;101830.34;5046191;28;45604;-80
2021/12/20 08:08:58;;;;;;;;;12.25;9.50;;;;;4.61;76.91;101827.56;5047699;28;46377;-78
2021/12/20 08:11:23;;;;;;;;;21.75;12.00;;;;;4.61;77.31;101816.22;5052366;28;45473;-77
2021/12/20 08:13:49;;;;;;;;;14.50;14.00;;;;;4.67;76.99;101823.34;5058522;28;45388;-78
2021/12/20 08:16:16;;;;;;;;;14.25;13.50;;;;;4.70;77.24;101816.44;5052830;28;45519;-77
2021/12/20 08:18:43;;;;;;;;;29.25;15.75;;;;;4.55;77.34;101782.91;5050184;28;46291;-77
2021/12/20 08:21:09;;;;;;;;;9.00;7.75;;;;;4.65;77.04;101810.22;5049483;28;45597;-77
2021/12/20 08:23:34;;;;;;;;;22.00;13.50;;;;;4.71;76.67;101820.84;5045875;28;45511;-78
2021/12/20 08:26:01;;;;;;;;;29.25;19.25;;;;;4.75;76.91;101827.94;5046636;28;45770;-77
2021/12/20 08:28:27;;;;;;;;;24.75;19.75;;;;;4.75;76.86;101833.19;5047920;28;46046;-76
2021/12/20 08:30:53;;;;;;;;;18.75;14.00;;;;;4.71;76.96;101828.72;5049685;28;45439;-78
2021/12/20 08:33:19;;;;;;;;;15.25;12.75;;;;;4.85;76.64;101841.25;5056841;28;45501;-77
2021/12/20 08:35:49;;;;;;;;;13.00;9.25;;;;;4.88;76.06;101838.69;5048780;28;45470;-76
2021/12/20 08:38:16;;;;;;;;;18.50;15.25;;;;;4.85;75.86;101841.25;5052125;28;45406;-80
2021/12/20 08:40:41;;;;;;;;;17.00;12.00;;;;;4.85;76.04;101846.50;5051549;28;45395;-80
2021/12/20 08:43:06;;;;;;;;;4.75;2.50;;;;;4.84;75.11;101847.34;5082182;28;45467;-81
2021/12/20 08:45:32;;;;;;;;;16.00;12.25;;;;;4.87;75.39;101858.75;5053507;28;45380;-80
2021/12/20 08:47:57;;;;;;;;;14.25;10.25;;;;;4.85;75.40;101846.50;5048215;28;45306;-80
2021/12/20 08:50:23;;;;;;;;;19.50;18.00;;;;;4.82;74.89;101843.81;5040036;28;45551;-78
2021/12/20 08:52:49;;;;;;;;;13.50;10.50;;;;;4.83;75.26;101856.94;5042495;28;45441;-77
2021/12/20 08:55:14;;;;;;;;;17.75;7.50;;;;;4.87;75.38;101860.50;5058547;28;45532;-77
2021/12/20 08:57:41;;;;;;;;;24.50;15.00;;;;;4.91;74.83;101872.84;5057232;28;45406;-77
2021/12/20 09:00:12;;;;;;;;;14.00;8.75;;;;;4.86;74.24;101853.47;5053816;28;45569;-77
2021/12/20 09:02:37;;;;;;;;;20.00;15.00;;;;;4.87;74.73;101857.88;5046836;28;45402;-80
2021/12/20 09:05:04;;;;;;;;;14.25;10.50;;;;;4.90;74.24;101871.94;5060457;28;45326;-80
2021/12/20 09:07:30;;;;;;;;;18.00;13.25;;;;;4.73;74.09;101870.66;5049199;28;47228;-80
2021/12/20 09:09:55;;;;;;;;;21.00;16.50;;;;;4.75;74.86;101880.34;5046918;28;45479;-80
2021/12/20 09:12:21;;;;;;;;;15.00;13.50;;;;;4.68;73.98;101875.78;5052783;28;45435;-81
2021/12/20 09:14:47;;;;;;;;;18.50;12.75;;;;;4.71;74.17;101875.84;5040522;28;45488;-81
2021/12/20 09:17:13;;;;;;;;;19.00;17.50;;;;;4.74;74.57;101870.69;5044302;28;46180;-79
2021/12/20 09:19:38;;;;;;;;;17.75;15.50;;;;;4.77;74.23;101862.91;5046447;28;45543;-79
2021/12/20 09:22:06;;;;;;;;;16.25;12.75;;;;;4.79;73.76;101866.44;5050954;28;45573;-78
2021/12/20 09:24:33;;;;;;;;;13.50;11.50;;;;;4.81;73.98;101871.72;5048759;28;45558;-80
2021/12/20 09:27:00;;;;;;;;;17.50;14.50;;;;;4.83;73.68;101870.03;5040405;28;46054;-80
2021/12/20 09:29:26;;;;;;;;;18.75;13.75;;;;;4.84;73.20;101876.16;5048165;28;45589;-81
2021/12/20 09:31:54;;;;;;;;;12.25;12.00;;;;;4.79;73.26;101866.44;5049711;28;45666;-81
2021/12/20 09:34:20;;;;;;;;;12.25;10.00;;;;;4.80;72.80;101862.97;5045443;28;45482;-80
2021/12/20 09:36:45;;;;;;;;;17.75;12.75;;;;;4.80;73.37;101878.69;5057149;28;45408;-79
2021/12/20 09:39:11;;;;;;;;;16.75;11.75;;;;;4.77;73.51;101875.13;5045616;28;45492;-81
2021/12/20 09:44:08;;;;;;;;;19.25;18.25;;;;;4.84;73.52;101865.66;5046217;28;45490;-77
2021/12/20 09:46:34;;;;;;;;;13.25;11.00;;;;;4.82;72.97;101880.47;5046165;28;45718;-77
2021/12/20 09:49:00;;;;;;;;;13.25;10.00;;;;;4.71;73.23;101846.16;5045805;28;45514;-77
2021/12/20 09:51:26;;;;;;;;;14.75;11.50;;;;;4.74;73.32;101862.84;5047281;28;45542;-77
2021/12/20 09:53:52;;;;;;;;;18.75;13.75;;;;;4.80;73.08;101880.44;5039760;28;45397;-76
2021/12/20 09:56:19;;;;;;;;;9.75;4.00;;;;;4.77;73.38;101870.75;5041385;28;45984;-77
2021/12/20 09:58:47;;;;;;;;;15.00;13.00;;;;;4.77;73.29;101862.03;5046284;28;45456;-77
2021/12/20 10:01:13;;;;;;;;;31.25;27.00;;;;;4.86;73.64;101863.97;5040469;28;45726;-76
2021/12/20 10:03:39;;;;;;;;;17.00;12.75;;;;;4.92;73.22;101870.25;5050392;28;45437;-77
2021/12/20 10:06:05;;;;;;;;;17.00;13.50;;;;;4.95;72.89;101879.91;5038243;28;45455;-77
2021/12/20 10:08:33;;;;;;;;;19.50;17.00;;;;;4.96;73.18;101879.06;5043996;28;45826;-76
2021/12/20 10:11:17;;;;;;;;;14.00;10.75;;;;;4.90;72.69;101878.91;5042453;28;45744;-77
2021/12/20 10:13:43;;;;;;;;;14.00;10.00;;;;;4.88;72.57;101880.63;5044089;28;45394;-76
2021/12/20 10:16:21;;;;;;;;;12.50;8.50;;;;;4.82;72.58;101890.97;5042380;28;47191;-76
2021/12/20 10:18:47;;;;;;;;;15.25;15.25;;;;;4.77;72.69;101889.09;5041812;28;45574;-76
2021/12/20 10:21:13;;;;;;;;;17.25;12.75;;;;;4.80;72.95;101878.69;5040933;28;45453;-76
2021/12/20 10:23:44;;;;;;;;;19.25;14.50;;;;;4.79;72.82;101878.66;5044665;28;45609;-76
2021/12/20 10:26:21;;;;;;;;;16.50;10.00;;;;;4.82;72.89;101867.38;5048165;28;45549;-76
2021/12/20 10:28:49;;;;;;;;;10.00;10.00;;;;;4.85;73.19;101877.94;5041134;28;45509;-76
2021/12/20 10:31:18;;;;;;;;;15.50;12.00;;;;;4.91;73.01;101867.59;5044241;28;45387;-77
2021/12/20 10:33:58;;;;;;;;;15.00;9.00;;;;;4.88;73.28;101876.25;5042241;28;45563;-76
2021/12/20 10:36:26;;;;;;;;;10.50;6.50;;;;;4.94;73.10;101868.53;5040218;28;45563;-77
2021/12/20 10:38:57;;;;;;;;;15.50;12.25;;;;;4.98;72.60;101877.38;5039351;28;45445;-77
2021/12/20 10:41:38;;;;;;;;;13.00;10.50;;;;;4.97;72.01;101868.63;5048013;28;45568;-76
2021/12/20 10:44:17;;;;;;;;;10.50;7.00;;;;;4.94;72.14;101865.06;5047788;28;45415;-76
2021/12/20 10:46:54;;;;;;;;;11.00;9.50;;;;;4.92;71.81;101858.88;5047351;28;45640;-76
2021/12/20 10:49:27;;;;;;;;;12.00;7.00;;;;;4.93;72.15;101860.66;5049199;28;45393;-77
2021/12/20 10:51:52;;;;;;;;;25.50;15.75;;;;;4.93;72.12;101861.53;5040176;28;45504;-76
2021/12/20 10:54:22;;;;;;;;;14.75;14.75;;;;;4.91;72.29;101852.75;5040563;28;45558;-80
2021/12/20 10:57:01;;;;;;;;;9.50;7.00;;;;;4.96;72.30;101859.00;5040526;28;45480;-77
2021/12/20 10:59:30;;;;;;;;;14.25;9.50;;;;;5.01;72.36;101848.63;5042864;28;45544;-77
2021/12/20 11:04:28;;;;;;;;;9.75;4.00;;;;;4.94;71.79;101854.56;5040228;28;45459;-76
2021/12/20 11:09:37;;;;;;;;;15.25;7.00;;;;;4.95;71.97;101853.69;5043281;28;45544;-77
2021/12/20 11:12:09;;;;;;;;;10.00;6.75;;;;;4.96;72.07;101852.84;5036043;28;45663;-77
2021/12/20 11:14:40;;;;;;;;;7.50;7.50;;;;;4.98;71.71;101848.56;5044785;28;45465;-77
2021/12/20 11:17:09;;;;;;;;;20.75;18.25;;;;;4.99;71.58;101839.81;5043742;28;46307;-76
2021/12/20 11:19:36;;;;;;;;;12.00;10.25;;;;;4.95;71.18;101851.06;5050499;28;45643;-76
2021/12/20 11:22:09;;;;;;;;;5.50;5.50;;;;;4.91;70.72;101841.41;5042068;28;45721;-76
2021/12/20 11:24:55;;;;;;;;;7.00;7.00;;;;;4.89;71.22;101848.31;5047367;28;45489;-77
2021/12/20 11:27:32;;;;;;;;;3.00;3.00;;;;;4.89;71.35;101848.31;5046277;28;45644;-81
2021/12/20 11:30:01;;;;;;;;;5.25;3.00;;;;;4.89;71.33;101814.25;5044830;28;45814;-85
2021/12/20 11:32:26;;;;;;;;;15.00;9.00;;;;;4.99;71.29;101826.72;5034748;28;45483;-80
2021/12/20 11:34:52;;;;;;;;;7.00;3.50;;;;;5.05;70.79;101821.63;5042719;28;45430;-80
2021/12/20 11:37:21;;;;;;;;;7.50;6.00;;;;;5.00;70.70;101831.13;5050202;28;46019;-81
2021/12/20 11:39:47;;;;;;;;;6.50;5.00;;;;;4.97;71.27;101818.81;5055182;28;45421;-80
2021/12/20 11:42:13;;;;;;;;;21.50;15.75;;;;;5.00;71.30;101836.38;5050201;28;45401;-80